createdAt,value
2018-03-02T00:00:04.787Z,46.25
2018-03-02T00:02:32.298Z,48.63
2018-03-02T00:04:59.894Z,43.70
2018-03-02T00:07:27.383Z,47.20
2018-03-02T00:09:55.823Z,43.47
2018-03-02T00:12:23.246Z,47.62
2018-03-02T00:14:50.715Z,46.80
2018-03-02T00:17:18.220Z,43.47
2018-03-02T00:19:45.722Z,41.10
2018-03-02T00:22:13.211Z,48.45
2018-03-02T00:24:40.707Z,40.53
2018-03-02T00:27:08.209Z,42.97
2018-03-02T00:29:36.454Z,42.40
2018-03-02T00:32:04.008Z,45.30
2018-03-02T00:34:31.515Z,47.53
2018-03-02T00:36:58.987Z,54.38
2018-03-02T00:39:26.541Z,59.10
2018-03-02T00:41:54.779Z,56.72
2018-03-02T00:44:22.282Z,60.72
2018-03-02T00:46:49.862Z,67.10
2018-03-02T00:49:18.149Z,84.25
2018-03-02T00:51:45.696Z,86.87
2018-03-02T00:54:13.952Z,72.72
2018-03-02T00:56:41.443Z,50.45
2018-03-02T00:59:08.937Z,52.90
2018-03-02T01:01:36.514Z,43.55
2018-03-02T01:04:04.014Z,48.45
2018-03-02T01:06:31.529Z,47.42
2018-03-02T01:08:58.999Z,48.13
2018-03-02T01:11:26.529Z,48.20
2018-03-02T01:13:54.040Z,43.60
2018-03-02T01:16:21.522Z,49.25
2018-03-02T01:18:48.992Z,50.38
2018-03-02T01:21:16.480Z,50.10
2018-03-02T01:23:43.990Z,49.00
2018-03-02T01:26:11.474Z,45.00
2018-03-02T01:28:38.981Z,45.35
2018-03-02T01:31:06.462Z,46.20
2018-03-02T01:33:34.068Z,49.60
2018-03-02T01:36:01.612Z,51.03
2018-03-02T01:38:29.112Z,48.58
2018-03-02T01:40:56.595Z,46.58
2018-03-02T01:43:24.110Z,48.03
2018-03-02T01:45:51.700Z,45.00
2018-03-02T01:48:19.199Z,48.15
2018-03-02T01:50:46.756Z,46.30
2018-03-02T01:53:14.383Z,46.88
2018-03-02T01:55:42.676Z,43.30
2018-03-02T01:58:10.921Z,47.60
2018-03-02T02:00:38.460Z,41.72
2018-03-02T02:03:06.718Z,49.63
2018-03-02T02:05:34.222Z,47.47
2018-03-02T02:08:01.845Z,48.03
2018-03-02T02:10:30.158Z,46.13
2018-03-02T02:12:58.384Z,45.95
2018-03-02T02:15:25.835Z,44.38
2018-03-02T02:17:53.288Z,45.85
2018-03-02T02:20:20.743Z,49.25
2018-03-02T02:22:48.204Z,49.30
2018-03-02T02:25:16.435Z,46.42
2018-03-02T02:27:43.899Z,49.20
2018-03-02T02:30:11.357Z,52.08
2018-03-02T02:32:39.574Z,49.35
2018-03-02T02:35:07.037Z,48.45
2018-03-02T02:37:34.496Z,49.40
2018-03-02T02:40:01.955Z,53.25
2018-03-02T02:42:29.417Z,52.00
2018-03-02T02:44:57.659Z,53.97
2018-03-02T02:47:25.888Z,51.92
2018-03-02T02:49:53.356Z,52.45
2018-03-02T02:52:20.816Z,53.45
2018-03-02T02:54:48.271Z,50.92
2018-03-02T02:57:16.491Z,52.60
2018-03-02T02:59:43.940Z,53.13
2018-03-02T03:02:12.165Z,51.22
2018-03-02T03:04:39.633Z,54.40
2018-03-02T03:07:07.863Z,53.28
2018-03-02T03:09:35.328Z,49.55
2018-03-02T03:12:03.552Z,48.40
2018-03-02T03:14:31.010Z,52.28
2018-03-02T03:16:59.239Z,49.30
2018-03-02T03:19:26.699Z,53.03
2018-03-02T03:21:54.167Z,50.83
2018-03-02T03:24:22.395Z,47.72
2018-03-02T03:26:50.627Z,51.05
2018-03-02T03:29:18.909Z,54.60
2018-03-02T03:31:47.140Z,55.88
2018-03-02T03:34:14.604Z,55.40
2018-03-02T03:36:42.082Z,50.95
2018-03-02T03:39:09.586Z,52.13
2018-03-02T03:41:37.048Z,47.75
2018-03-02T03:44:04.508Z,51.03
2018-03-02T03:46:32.772Z,53.53
2018-03-02T03:49:00.234Z,54.92
2018-03-02T03:51:27.687Z,54.58
2018-03-02T03:53:55.144Z,47.08
2018-03-02T03:56:22.604Z,50.55
2018-03-02T03:58:50.059Z,49.42
2018-03-02T04:01:17.531Z,50.00
2018-03-02T04:03:45.755Z,52.35
2018-03-02T04:06:13.220Z,49.83
2018-03-02T04:08:40.694Z,49.85
2018-03-02T04:11:08.158Z,51.97
2018-03-02T04:13:36.395Z,53.75
2018-03-02T04:16:03.860Z,49.97
2018-03-02T04:18:31.339Z,48.60
2018-03-02T04:20:58.808Z,48.80
2018-03-02T04:23:26.278Z,57.83
2018-03-02T04:25:54.496Z,54.38
2018-03-02T04:28:21.983Z,52.95
2018-03-02T04:30:49.443Z,53.00
2018-03-02T04:33:17.673Z,59.72
2018-03-02T04:35:45.131Z,48.47
2018-03-02T04:38:13.369Z,52.35
2018-03-02T04:40:40.827Z,57.92
2018-03-02T04:43:09.070Z,53.05
2018-03-02T04:45:36.536Z,54.17
2018-03-02T04:48:03.992Z,58.53
2018-03-02T04:50:32.227Z,54.40
2018-03-02T04:52:59.675Z,54.47
2018-03-02T04:55:27.903Z,53.05
2018-03-02T04:57:55.372Z,60.50
2018-03-02T05:00:22.840Z,55.95
2018-03-02T05:02:51.068Z,57.10
2018-03-02T05:05:18.532Z,60.22
2018-03-02T05:07:46.012Z,62.80
2018-03-02T05:10:14.355Z,54.15
2018-03-02T05:12:41.814Z,57.13
2018-03-02T05:15:09.275Z,58.25
2018-03-02T05:17:36.787Z,57.17
2018-03-02T05:20:04.256Z,56.88
2018-03-02T05:22:32.490Z,63.65
2018-03-02T05:24:59.972Z,56.03
2018-03-02T05:27:27.431Z,54.50
2018-03-02T05:29:55.656Z,54.50
2018-03-02T05:32:23.111Z,50.92
2018-03-02T05:34:50.560Z,50.72
2018-03-02T05:37:18.019Z,55.78
2018-03-02T05:39:45.504Z,50.72
2018-03-02T05:42:13.018Z,54.10
2018-03-02T05:44:40.519Z,57.13
2018-03-02T05:47:08.091Z,57.08
2018-03-02T05:49:35.559Z,54.42
2018-03-02T05:52:03.011Z,59.55
2018-03-02T05:54:30.485Z,50.55
2018-03-02T05:56:58.724Z,55.92
2018-03-02T05:59:26.177Z,59.08
2018-03-02T06:01:53.643Z,55.08
2018-03-02T06:04:21.860Z,57.35
2018-03-02T06:06:49.335Z,56.47
2018-03-02T06:09:17.562Z,56.78
2018-03-02T06:11:45.023Z,56.00
2018-03-02T06:14:14.651Z,59.53
2018-03-02T06:16:42.911Z,60.72
2018-03-02T06:19:10.375Z,59.75
2018-03-02T06:21:37.843Z,56.45
2018-03-02T06:24:05.305Z,62.13
2018-03-02T06:26:33.539Z,57.03
2018-03-02T06:29:00.991Z,61.30
2018-03-02T06:31:28.450Z,56.37
2018-03-02T06:33:55.911Z,57.92
2018-03-02T06:36:23.373Z,56.72
2018-03-02T06:38:50.848Z,54.38
2018-03-02T06:41:18.352Z,54.70
2018-03-02T06:43:45.815Z,56.85
2018-03-02T06:46:14.038Z,58.17
2018-03-02T06:48:47.443Z,52.47
2018-03-02T06:51:14.908Z,56.90
2018-03-02T06:53:42.747Z,54.03
2018-03-02T06:56:10.200Z,52.13
2018-03-02T06:58:37.669Z,52.97
2018-03-02T07:01:05.134Z,50.50
2018-03-02T07:03:32.603Z,51.88
2018-03-02T07:06:00.844Z,55.20
2018-03-02T07:08:28.315Z,52.20
2018-03-02T07:10:55.772Z,55.42
2018-03-02T07:13:23.996Z,52.60
2018-03-02T07:15:51.463Z,52.78
2018-03-02T07:18:19.699Z,50.85
2018-03-02T07:20:47.931Z,51.65
2018-03-02T07:23:15.407Z,48.70
2018-03-02T07:25:42.904Z,49.47
2018-03-02T07:28:10.387Z,46.70
2018-03-02T07:30:37.855Z,44.47
2018-03-02T07:33:05.328Z,43.80
2018-03-02T07:35:32.813Z,46.65
2018-03-02T07:38:00.276Z,46.05
2018-03-02T07:40:27.739Z,47.80
2018-03-02T07:42:55.214Z,52.73
2018-03-02T07:45:23.461Z,44.53
2018-03-02T07:47:50.915Z,45.17
2018-03-02T07:50:18.383Z,42.37
2018-03-02T07:52:46.610Z,40.70
2018-03-02T07:55:14.080Z,39.37
2018-03-02T07:57:41.532Z,39.83
2018-03-02T08:00:09.751Z,38.30
2018-03-02T08:02:37.204Z,37.37
2018-03-02T08:05:04.686Z,41.50
2018-03-02T08:07:32.144Z,39.83
2018-03-02T08:09:59.607Z,38.03
2018-03-02T08:12:27.064Z,38.00
2018-03-02T08:14:55.283Z,37.17
2018-03-02T08:17:22.726Z,37.47
2018-03-02T08:19:50.181Z,37.13
2018-03-02T08:22:17.631Z,35.47
2018-03-02T08:24:45.090Z,34.67
2018-03-02T08:27:13.308Z,36.63
2018-03-02T08:29:40.760Z,36.13
2018-03-02T08:32:08.212Z,35.03
2018-03-02T08:34:35.664Z,34.70
2018-03-02T08:37:03.136Z,33.63
2018-03-02T08:39:30.600Z,33.00
2018-03-02T08:41:58.823Z,34.80
2018-03-02T08:44:26.272Z,36.70
2018-03-02T08:46:53.727Z,33.23
2018-03-02T08:49:21.172Z,35.63
2018-03-02T08:51:48.630Z,36.30
2018-03-02T08:54:16.843Z,38.20
2018-03-02T08:56:45.124Z,35.53
2018-03-02T08:59:13.335Z,34.87
2018-03-02T09:01:41.564Z,38.30
2018-03-02T09:04:09.017Z,37.73
2018-03-02T09:06:37.228Z,34.27
2018-03-02T09:09:04.696Z,34.33
2018-03-02T09:11:32.928Z,35.90
2018-03-02T09:14:01.155Z,35.33
2018-03-02T09:16:29.384Z,36.83
2018-03-02T09:18:57.608Z,32.70
2018-03-02T09:21:25.060Z,34.97
2018-03-02T09:23:52.565Z,35.70
2018-03-02T09:26:19.983Z,33.83
2018-03-02T09:28:47.440Z,35.50
2018-03-02T09:31:14.896Z,36.93
2018-03-02T09:33:42.356Z,33.97
2018-03-02T09:36:09.809Z,32.93
2018-03-02T09:38:38.032Z,34.33
2018-03-02T09:41:05.484Z,33.43
2018-03-02T09:43:32.940Z,34.30
2018-03-02T09:46:00.395Z,36.40
2018-03-02T09:48:27.887Z,37.67
2018-03-02T09:50:55.343Z,36.37
2018-03-02T09:53:22.803Z,31.73
2018-03-02T09:55:51.023Z,35.83
2018-03-02T09:58:18.497Z,33.03
2018-03-02T10:00:46.720Z,33.10
2018-03-02T10:03:14.181Z,34.73
2018-03-02T10:05:41.644Z,33.70
2018-03-02T10:08:09.095Z,34.30
2018-03-02T10:10:36.552Z,36.40
2018-03-02T10:13:04.024Z,35.20
2018-03-02T10:15:31.484Z,33.47
2018-03-02T10:17:58.943Z,33.93
2018-03-02T10:20:26.395Z,35.73
2018-03-02T10:22:53.860Z,36.20
2018-03-02T10:25:21.319Z,40.40
2018-03-02T10:27:48.764Z,40.80
2018-03-02T10:30:16.228Z,37.67
2018-03-02T10:32:43.689Z,36.83
2018-03-02T10:35:11.908Z,38.63
2018-03-02T10:37:39.360Z,35.00
2018-03-02T10:40:07.583Z,32.90
2018-03-02T10:42:35.040Z,34.17
2018-03-02T10:45:03.263Z,33.33
2018-03-02T10:47:30.731Z,33.57
2018-03-02T10:49:58.948Z,36.43
2018-03-02T10:52:26.404Z,35.43
2018-03-02T10:54:54.623Z,35.43
2018-03-02T10:57:22.075Z,36.83
2018-03-02T10:59:49.529Z,35.97
2018-03-02T11:02:20.809Z,34.93
2018-03-02T11:04:48.261Z,36.60
2018-03-02T11:07:15.716Z,34.93
2018-03-02T11:09:43.932Z,34.00
2018-03-02T11:12:11.379Z,34.00
2018-03-02T11:14:39.603Z,35.40
2018-03-02T11:17:07.816Z,33.87
2018-03-02T11:19:35.280Z,35.10
2018-03-02T11:22:03.492Z,36.03
2018-03-02T11:24:30.963Z,36.00
2018-03-02T11:26:59.193Z,40.67
2018-03-02T11:29:26.654Z,38.20
2018-03-02T11:31:54.115Z,39.53
2018-03-02T11:34:21.584Z,38.37
2018-03-02T11:36:49.027Z,37.47
2018-03-02T11:39:16.499Z,37.93
2018-03-02T11:41:43.948Z,37.43
2018-03-02T11:44:12.180Z,38.43
2018-03-02T11:46:39.632Z,36.87
2018-03-02T11:49:07.852Z,36.27
2018-03-02T11:51:35.300Z,37.70
2018-03-02T11:54:02.747Z,40.40
2018-03-02T11:56:30.192Z,42.27
2018-03-02T11:58:58.445Z,36.93
2018-03-02T12:01:25.873Z,41.17
2018-03-02T12:03:54.133Z,50.20
2018-03-02T12:06:21.591Z,37.67
2018-03-02T12:08:49.040Z,38.47
2018-03-02T12:11:17.254Z,38.97
2018-03-02T12:13:45.296Z,40.30
2018-03-02T12:16:12.743Z,38.27
2018-03-02T12:18:40.193Z,39.37
2018-03-02T12:21:08.418Z,36.33
2018-03-02T12:23:35.867Z,34.77
2018-03-02T12:26:04.085Z,38.47
2018-03-02T12:28:32.351Z,35.97
2018-03-02T12:30:59.788Z,39.97
2018-03-02T12:33:27.217Z,40.10
2018-03-02T12:35:54.668Z,44.90
2018-03-02T12:38:22.115Z,50.87
2018-03-02T12:40:49.564Z,40.97
2018-03-02T12:43:17.062Z,41.73
2018-03-02T12:45:44.496Z,39.27
2018-03-02T12:48:11.943Z,38.33
2018-03-02T12:50:39.423Z,41.00
2018-03-02T12:53:07.639Z,42.93
2018-03-02T12:55:35.097Z,39.87
2018-03-02T12:58:03.315Z,40.13
2018-03-02T13:00:30.790Z,36.73
2018-03-02T13:02:58.988Z,37.97
2018-03-02T13:05:26.447Z,41.43
2018-03-02T13:07:53.916Z,39.40
2018-03-02T13:10:21.394Z,39.67
2018-03-02T13:12:48.861Z,39.43
2018-03-02T13:15:16.318Z,38.73
2018-03-02T13:17:44.464Z,42.00
2018-03-02T13:20:11.907Z,41.43
2018-03-02T13:22:40.960Z,43.27
2018-03-02T13:25:08.420Z,46.23
2018-03-02T13:27:47.844Z,46.77
2018-03-02T13:30:16.080Z,44.03
2018-03-02T13:32:55.344Z,51.80
2018-03-02T13:35:23.567Z,49.97
2018-03-02T13:37:51.012Z,42.67
2018-03-02T13:40:30.452Z,47.33
2018-03-02T13:42:57.903Z,42.80
2018-03-02T13:45:25.364Z,43.83
2018-03-02T13:51:07.070Z,42.73
2018-03-02T13:53:34.562Z,46.57
2018-03-02T13:56:02.032Z,51.50
2018-03-02T13:58:29.518Z,46.40
2018-03-02T14:00:56.992Z,49.10
2018-03-02T14:03:36.549Z,51.70
2018-03-02T14:06:04.066Z,47.93
2018-03-02T14:08:31.641Z,51.33
2018-03-02T14:10:59.109Z,50.27
2018-03-02T14:13:26.590Z,47.63
2018-03-02T14:15:54.070Z,54.23
2018-03-02T14:18:21.558Z,56.53
2018-03-02T14:20:49.032Z,58.33
2018-03-02T14:23:16.504Z,48.70
2018-03-02T14:25:43.986Z,51.10
2018-03-02T14:28:11.450Z,49.07
2018-03-02T14:30:39.719Z,56.23
2018-03-02T14:33:07.219Z,49.03
2018-03-02T14:35:34.714Z,53.07
2018-03-02T14:38:02.178Z,52.87
2018-03-02T14:40:30.941Z,52.07
2018-03-02T14:42:58.601Z,51.20
2018-03-02T14:45:26.169Z,52.33
2018-03-02T14:47:53.795Z,49.67
2018-03-02T14:50:21.299Z,48.10
2018-03-02T14:52:49.543Z,53.13
2018-03-02T14:55:17.029Z,49.67
2018-03-02T14:57:44.695Z,49.93
2018-03-02T15:00:12.202Z,50.33
2018-03-02T15:02:39.668Z,49.97
2018-03-02T15:05:07.140Z,51.40
2018-03-02T15:07:34.655Z,53.63
2018-03-02T15:10:02.093Z,51.07
2018-03-02T15:12:29.572Z,54.20
2018-03-02T15:14:57.063Z,53.40
2018-03-02T15:17:24.524Z,56.00
2018-03-02T15:19:52.760Z,53.73
2018-03-02T15:22:20.326Z,50.77
2018-03-02T15:24:48.584Z,50.03
2018-03-02T15:27:16.841Z,52.13
2018-03-02T15:29:44.325Z,59.90
2018-03-02T15:32:11.790Z,47.37
2018-03-02T15:34:39.290Z,51.70
2018-03-02T15:37:06.770Z,55.00
2018-03-02T15:39:34.272Z,53.73
2018-03-02T15:42:01.844Z,52.70
2018-03-02T15:44:29.331Z,54.57
2018-03-02T15:46:56.823Z,58.27
2018-03-02T15:49:24.375Z,50.33
2018-03-02T15:51:51.796Z,53.13
2018-03-02T15:54:19.263Z,57.17
2018-03-02T15:56:46.792Z,54.70
2018-03-02T15:59:14.258Z,54.70
2018-03-02T16:01:41.860Z,58.20
2018-03-02T16:04:10.929Z,57.20
2018-03-02T16:06:39.186Z,54.10
2018-03-02T16:09:06.659Z,54.00
2018-03-02T16:11:34.173Z,54.17
2018-03-02T16:14:02.473Z,59.27
2018-03-02T16:16:30.688Z,52.40
2018-03-02T16:18:58.937Z,61.77
2018-03-02T16:21:26.454Z,58.73
2018-03-02T16:23:53.934Z,56.70
2018-03-02T16:26:21.423Z,58.67
2018-03-02T16:28:48.958Z,56.00
2018-03-02T16:31:16.525Z,55.90
2018-03-02T16:33:45.077Z,59.17
2018-03-02T16:36:12.571Z,61.17
2018-03-02T16:38:41.085Z,59.50
2018-03-02T16:41:08.582Z,55.90
2018-03-02T16:43:36.066Z,60.87
2018-03-02T16:46:03.677Z,63.83
2018-03-02T16:48:31.166Z,55.07
2018-03-02T16:50:58.630Z,59.67
2018-03-02T16:53:26.104Z,59.23
2018-03-02T16:55:53.623Z,55.90
2018-03-02T16:58:21.098Z,58.53
2018-03-02T17:00:48.568Z,57.40
2018-03-02T17:03:16.813Z,57.70
2018-03-02T17:05:44.331Z,52.70
2018-03-02T17:08:11.830Z,60.13
2018-03-02T17:10:39.401Z,57.20
2018-03-02T17:13:06.906Z,58.90
2018-03-02T17:15:34.615Z,57.27
2018-03-02T17:18:02.173Z,62.97
2018-03-02T17:20:29.658Z,60.80
2018-03-02T17:22:57.139Z,59.03
2018-03-02T17:25:24.614Z,63.17
2018-03-02T17:27:52.089Z,59.50
2018-03-02T17:30:19.603Z,63.17
2018-03-02T17:32:47.080Z,62.50
2018-03-02T17:35:14.554Z,64.03
2018-03-02T17:37:42.854Z,63.53
2018-03-02T17:40:10.430Z,65.00
2018-03-02T17:42:39.751Z,58.60
2018-03-02T17:45:07.240Z,66.23
2018-03-02T17:47:34.806Z,64.90
2018-03-02T17:50:02.316Z,61.33
2018-03-02T17:52:30.014Z,64.17
2018-03-02T17:54:57.520Z,56.93
2018-03-02T17:57:25.009Z,63.80
2018-03-02T17:59:52.561Z,59.27
2018-03-02T18:02:20.062Z,65.30
2018-03-02T18:04:47.763Z,59.77
2018-03-02T18:12:43.882Z,62.33
2018-03-02T18:15:11.349Z,65.63
2018-03-02T18:17:38.963Z,62.73
2018-03-02T18:20:07.309Z,60.23
2018-03-02T18:22:34.761Z,60.87
2018-03-02T18:25:02.320Z,69.80
2018-03-02T18:27:30.638Z,62.17
2018-03-02T18:29:58.876Z,59.70
2018-03-02T18:32:26.333Z,63.67
2018-03-02T18:34:53.788Z,61.63
2018-03-02T18:37:22.013Z,59.23
2018-03-02T18:39:49.482Z,61.37
2018-03-02T18:42:16.949Z,64.87
2018-03-02T18:44:44.490Z,55.63
2018-03-02T18:47:11.997Z,59.13
2018-03-02T18:49:40.322Z,59.93
2018-03-02T18:52:07.784Z,62.60
2018-03-02T18:54:35.253Z,61.67
2018-03-02T18:57:02.733Z,63.63
2018-03-02T18:59:30.188Z,59.83
2018-03-02T19:01:57.670Z,60.73
2018-03-02T19:04:25.130Z,61.97
2018-03-02T19:06:52.589Z,66.00
2018-03-02T19:09:20.056Z,64.97
2018-03-02T19:11:47.514Z,63.07
2018-03-02T19:14:15.095Z,57.40
2018-03-02T19:16:42.586Z,63.07
2018-03-02T19:19:10.057Z,61.10
2018-03-02T19:21:38.281Z,62.07
2018-03-02T19:24:05.818Z,62.60
2018-03-02T19:26:33.275Z,64.27
2018-03-02T19:29:00.747Z,61.73
2018-03-02T19:31:28.236Z,57.60
2018-03-02T19:33:56.553Z,62.23
2018-03-02T19:36:24.034Z,61.03
2018-03-02T19:38:51.649Z,59.90
2018-03-02T19:41:19.901Z,62.57
2018-03-02T19:43:47.416Z,61.77
2018-03-02T19:46:14.884Z,59.87
2018-03-02T19:48:42.345Z,60.07
2018-03-02T19:51:09.806Z,60.77
2018-03-02T19:53:37.412Z,57.10
2018-03-02T19:56:05.633Z,60.73
2018-03-02T19:58:33.105Z,60.97
2018-03-02T20:01:00.569Z,61.63
2018-03-02T20:03:28.030Z,57.10
2018-03-02T20:05:55.497Z,66.33
2018-03-02T20:08:22.951Z,61.13
2018-03-02T20:10:50.413Z,60.87
2018-03-02T20:13:17.877Z,60.97
2018-03-02T20:15:46.107Z,63.20
2018-03-02T20:18:13.568Z,58.70
2018-03-02T20:20:41.036Z,55.87
2018-03-02T20:23:08.501Z,59.20
2018-03-02T20:25:35.958Z,62.23
2018-03-02T20:28:03.408Z,64.73
2018-03-02T20:30:30.870Z,60.10
2018-03-02T20:32:58.333Z,60.30
2018-03-02T20:35:25.794Z,61.83
2018-03-02T20:37:53.252Z,59.40
2018-03-02T20:40:20.705Z,64.70
2018-03-02T20:42:48.178Z,60.77
2018-03-02T20:45:16.414Z,56.70
2018-03-02T20:47:43.869Z,66.40
2018-03-02T20:50:11.355Z,58.80
2018-03-02T20:52:39.065Z,59.23
2018-03-02T20:55:07.265Z,60.47
2018-03-02T20:57:34.723Z,70.47
2018-03-02T21:00:02.178Z,66.67
2018-03-02T21:02:29.632Z,67.00
2018-03-02T21:04:57.112Z,68.73
2018-03-02T21:07:25.342Z,69.43
2018-03-02T21:09:52.823Z,63.83
2018-03-02T21:12:20.282Z,61.57
2018-03-02T21:14:47.814Z,64.40
2018-03-02T21:17:15.273Z,59.77
2018-03-02T21:19:42.811Z,68.33
2018-03-02T21:22:10.269Z,60.87
2018-03-02T21:24:37.732Z,54.13
2018-03-02T21:27:05.201Z,64.47
2018-03-02T21:29:32.655Z,71.33
2018-03-02T21:32:00.122Z,58.93
2018-03-02T21:34:27.626Z,56.50
2018-03-02T21:36:55.061Z,56.40
2018-03-02T21:39:22.528Z,64.20
2018-03-02T21:41:49.985Z,60.47
2018-03-02T21:44:17.441Z,63.03
2018-03-02T21:46:45.681Z,63.07
2018-03-02T21:49:13.147Z,61.20
2018-03-02T21:51:40.607Z,59.37
2018-03-02T21:54:08.070Z,58.03
2018-03-02T21:56:35.528Z,59.60
2018-03-02T21:59:02.984Z,56.10
2018-03-02T22:01:30.445Z,63.43
2018-03-02T22:03:57.905Z,62.50
2018-03-02T22:06:25.361Z,64.40
2018-03-02T22:08:52.822Z,55.63
2018-03-02T22:11:20.276Z,63.23
2018-03-02T22:13:47.740Z,64.23
2018-03-02T22:16:15.968Z,63.13
2018-03-02T22:18:43.530Z,60.70
2018-03-02T22:21:10.890Z,63.50
2018-03-02T22:23:38.340Z,60.93
2018-03-02T22:26:05.800Z,61.97
2018-03-02T22:28:33.264Z,73.90
2018-03-02T22:31:00.734Z,76.97
2018-03-02T22:33:28.189Z,94.53
2018-03-02T22:35:55.659Z,79.80
2018-03-02T22:38:23.115Z,68.00
2018-03-02T22:40:50.581Z,62.60
2018-03-02T22:43:18.802Z,67.07
2018-03-02T22:45:46.268Z,65.90
2018-03-02T22:48:13.724Z,57.83
2018-03-02T22:50:41.193Z,66.63
2018-03-02T22:53:08.649Z,67.67
2018-03-02T22:55:36.173Z,58.33
2018-03-02T22:58:03.625Z,61.97
2018-03-02T23:00:31.132Z,57.47
2018-03-02T23:02:59.376Z,65.77
2018-03-02T23:05:26.836Z,65.80
2018-03-02T23:07:54.298Z,57.77
2018-03-02T23:10:21.761Z,59.93
2018-03-02T23:12:49.219Z,57.17
2018-03-02T23:15:16.673Z,61.30
2018-03-02T23:17:44.131Z,67.10
2018-03-02T23:20:11.595Z,70.37
2018-03-02T23:22:39.046Z,83.53
2018-03-02T23:25:06.506Z,68.73
2018-03-02T23:27:34.005Z,68.30
2018-03-02T23:30:01.428Z,76.57
2018-03-02T23:32:29.133Z,71.17
2018-03-02T23:34:56.583Z,66.83
2018-03-02T23:37:24.035Z,58.97
2018-03-02T23:39:51.489Z,63.90
2018-03-02T23:42:19.717Z,65.13
2018-03-02T23:44:47.182Z,69.80
2018-03-02T23:47:14.649Z,65.97
2018-03-02T23:49:42.103Z,65.30
2018-03-02T23:52:09.583Z,63.20
2018-03-02T23:54:37.804Z,69.23
2018-03-02T23:57:05.265Z,76.13
2018-03-02T23:59:32.712Z,74.63
